createdAt,value
2023-04-18T00:00:23.673Z,94637.30
2023-04-18T00:02:54.225Z,94633.78
2023-04-18T00:05:22.001Z,94635.92
2023-04-18T00:07:48.992Z,94633.48
2023-04-18T00:10:16.060Z,94629.38
2023-04-18T00:12:43.101Z,94628.70
2023-04-18T00:15:10.329Z,94630.84
2023-04-18T00:17:38.574Z,94632.90
2023-04-18T00:20:12.898Z,94631.52
2023-04-18T00:22:42.827Z,94632.21
2023-04-18T00:25:11.137Z,94634.70
2023-04-18T00:27:41.741Z,94635.39
2023-04-18T00:30:09.436Z,94632.06
2023-04-18T00:32:37.923Z,94636.23
2023-04-18T00:35:05.945Z,94631.77
2023-04-18T00:37:32.916Z,94632.29
2023-04-18T00:39:59.703Z,94629.10
2023-04-18T00:42:28.960Z,94629.02
2023-04-18T00:44:55.722Z,94626.70
2023-04-18T00:47:22.510Z,94624.18
2023-04-18T00:49:49.600Z,94620.89
2023-04-18T00:52:18.460Z,94620.23
2023-04-18T00:54:45.396Z,94618.76
2023-04-18T00:57:13.024Z,94616.45
2023-04-18T00:59:40.041Z,94612.73
2023-04-18T01:02:07.932Z,94616.47
2023-04-18T01:04:34.958Z,94610.72
2023-04-18T01:07:02.303Z,94612.51
2023-04-18T01:09:29.558Z,94611.02
2023-04-18T01:11:56.745Z,94608.85
2023-04-18T01:14:24.123Z,94608.65
2023-04-18T01:16:51.067Z,94611.64
2023-04-18T01:19:19.064Z,94609.88
2023-04-18T01:21:45.994Z,94610.84
2023-04-18T01:24:17.759Z,94606.52
2023-04-18T01:26:45.902Z,94605.63
2023-04-18T01:29:12.728Z,94608.92
2023-04-18T01:31:40.831Z,94609.05
2023-04-18T01:34:08.409Z,94608.73
2023-04-18T01:36:36.327Z,94607.48
2023-04-18T01:39:03.512Z,94610.45
2023-04-18T01:41:32.849Z,94610.55
2023-04-18T01:44:00.136Z,94610.16
2023-04-18T01:46:27.624Z,94605.32
2023-04-18T01:48:54.729Z,94603.41
2023-04-18T01:51:21.743Z,94602.84
2023-04-18T01:53:48.581Z,94600.64
2023-04-18T01:56:15.364Z,94601.41
2023-04-18T01:58:42.156Z,94600.56
2023-04-18T02:01:09.040Z,94601.36
2023-04-18T02:03:35.997Z,94599.60
2023-04-18T02:06:04.904Z,94598.51
2023-04-18T02:08:35.611Z,94598.21
2023-04-18T02:11:05.146Z,94599.77
2023-04-18T02:13:32.380Z,94604.47
2023-04-18T02:15:59.272Z,94604.80
2023-04-18T02:18:26.728Z,94604.41
2023-04-18T02:20:53.692Z,94604.77
2023-04-18T02:23:21.881Z,94606.43
2023-04-18T02:25:48.687Z,94609.08
2023-04-18T02:28:17.515Z,94609.08
2023-04-18T02:30:44.284Z,94612.36
2023-04-18T02:33:11.089Z,94607.80
2023-04-18T02:35:38.054Z,94608.95
2023-04-18T02:38:04.898Z,94609.67
2023-04-18T02:40:31.658Z,94616.13
2023-04-18T02:42:59.494Z,94615.40
2023-04-18T02:45:26.241Z,94616.61
2023-04-18T02:47:56.523Z,94615.00
2023-04-18T02:50:25.154Z,94614.51
2023-04-18T02:52:52.835Z,94614.17
2023-04-18T02:55:22.004Z,94611.51
2023-04-18T02:57:48.884Z,94610.86
2023-04-18T03:00:47.357Z,94612.48
2023-04-18T03:03:36.144Z,94612.69
2023-04-18T03:06:32.350Z,94613.66
2023-04-18T03:09:00.958Z,94615.20
2023-04-18T03:11:28.229Z,94617.19
2023-04-18T03:13:57.641Z,94619.82
2023-04-18T03:16:25.965Z,94620.45
2023-04-18T03:18:53.764Z,94623.75
2023-04-18T03:21:21.680Z,94627.98
2023-04-18T03:23:48.611Z,94630.31
2023-04-18T03:26:15.865Z,94634.20
2023-04-18T03:28:45.433Z,94638.02
2023-04-18T03:31:12.445Z,94639.84
2023-04-18T03:33:42.393Z,94643.58
2023-04-18T03:36:12.017Z,94649.05
2023-04-18T03:38:40.627Z,94649.95
2023-04-18T03:41:08.374Z,94654.86
2023-04-18T03:43:36.654Z,94652.22
2023-04-18T03:46:04.523Z,94651.36
2023-04-18T03:48:37.444Z,94650.71
2023-04-18T03:51:08.234Z,94650.02
2023-04-18T03:53:36.419Z,94649.98
2023-04-18T03:56:03.635Z,94648.52
2023-04-18T03:58:49.202Z,94648.19
2023-04-18T04:01:16.745Z,94651.47
2023-04-18T04:03:44.183Z,94648.59
2023-04-18T04:06:11.652Z,94650.33
2023-04-18T04:08:38.815Z,94653.02
2023-04-18T04:11:05.963Z,94650.25
2023-04-18T04:13:33.246Z,94652.98
2023-04-18T04:16:00.234Z,94657.20
2023-04-18T04:18:31.196Z,94661.69
2023-04-18T04:21:21.221Z,94661.06
2023-04-18T04:23:51.138Z,94656.33
2023-04-18T04:26:30.733Z,94657.79
2023-04-18T04:29:03.780Z,94663.88
2023-04-18T04:31:32.198Z,94665.48
2023-04-18T04:33:59.429Z,94669.95
2023-04-18T04:36:27.300Z,94669.58
2023-04-18T04:38:55.430Z,94667.75
2023-04-18T04:41:29.491Z,94668.04
2023-04-18T04:43:56.344Z,94667.23
2023-04-18T04:46:29.523Z,94674.29
2023-04-18T04:48:57.395Z,94674.00
2023-04-18T04:51:26.178Z,94673.86
2023-04-18T04:53:52.958Z,94677.10
2023-04-18T04:56:19.891Z,94678.25
2023-04-18T04:58:47.279Z,94677.95
2023-04-18T05:01:32.626Z,94680.18
2023-04-18T05:03:59.555Z,94679.90
2023-04-18T05:06:26.616Z,94684.45
2023-04-18T05:08:53.607Z,94684.05
2023-04-18T05:11:21.110Z,94687.39
2023-04-18T05:13:47.808Z,94686.61
2023-04-18T05:16:14.578Z,94690.35
2023-04-18T05:18:41.631Z,94690.88
2023-04-18T05:21:08.410Z,94695.47
2023-04-18T05:23:37.057Z,94699.81
2023-04-18T05:26:05.074Z,94696.69
2023-04-18T05:28:32.684Z,94696.48
2023-04-18T05:31:02.256Z,94693.63
2023-04-18T05:33:30.308Z,94693.55
2023-04-18T05:35:57.959Z,94694.13
2023-04-18T05:38:25.357Z,94698.51
2023-04-18T05:40:52.182Z,94698.30
2023-04-18T05:43:19.591Z,94701.79
2023-04-18T05:45:46.726Z,94698.64
2023-04-18T05:48:13.969Z,94702.16
2023-04-18T05:50:40.808Z,94704.80
2023-04-18T05:53:07.625Z,94705.56
2023-04-18T05:55:34.550Z,94702.00
2023-04-18T05:58:01.390Z,94702.94
2023-04-18T06:00:28.426Z,94702.45
2023-04-18T06:02:55.377Z,94703.13
2023-04-18T06:05:23.943Z,94700.75
2023-04-18T06:07:53.422Z,94703.38
2023-04-18T06:10:20.332Z,94707.45
2023-04-18T06:12:47.080Z,94707.42
2023-04-18T06:15:14.783Z,94706.32
2023-04-18T06:17:41.607Z,94704.30
2023-04-18T06:20:09.828Z,94701.58
2023-04-18T06:22:36.785Z,94702.58
2023-04-18T06:25:03.794Z,94705.00
2023-04-18T06:27:31.882Z,94705.65
2023-04-18T06:29:59.285Z,94702.25
2023-04-18T06:32:28.963Z,94700.65
2023-04-18T06:34:55.861Z,94701.85
2023-04-18T06:37:22.739Z,94700.44
2023-04-18T06:39:49.538Z,94702.98
2023-04-18T06:42:16.340Z,94706.56
2023-04-18T06:44:47.739Z,94707.23
2023-04-18T06:47:14.677Z,94706.53
2023-04-18T06:49:41.492Z,94707.05
2023-04-18T06:52:08.265Z,94708.14
2023-04-18T06:54:35.044Z,94706.56
2023-04-18T06:57:03.771Z,94706.00
2023-04-18T06:59:30.765Z,94708.66
2023-04-18T07:01:57.605Z,94706.31
2023-04-18T07:04:24.780Z,94707.73
2023-04-18T07:06:52.013Z,94709.60
2023-04-18T07:09:18.919Z,94708.00
2023-04-18T07:11:45.789Z,94712.51
2023-04-18T07:14:12.771Z,94712.52
2023-04-18T07:16:39.826Z,94716.08
2023-04-18T07:19:06.891Z,94716.63
2023-04-18T07:21:33.707Z,94716.29
2023-04-18T07:24:00.542Z,94717.66
2023-04-18T07:26:27.718Z,94715.91
2023-04-18T07:28:54.693Z,94719.70
2023-04-18T07:31:21.579Z,94722.39
2023-04-18T07:33:48.453Z,94720.85
2023-04-18T07:36:15.345Z,94718.30
2023-04-18T07:38:42.135Z,94720.62
2023-04-18T07:41:08.935Z,94719.13
2023-04-18T07:43:36.082Z,94721.95
2023-04-18T07:46:03.119Z,94720.71
2023-04-18T07:48:29.883Z,94721.96
2023-04-18T07:50:56.708Z,94722.45
2023-04-18T07:53:23.584Z,94722.19
2023-04-18T07:55:50.559Z,94726.52
2023-04-18T07:58:17.728Z,94727.09
2023-04-18T08:00:45.021Z,94729.02
2023-04-18T08:03:12.890Z,94732.59
2023-04-18T08:05:41.463Z,94728.25
2023-04-18T08:08:09.907Z,94727.20
2023-04-18T08:10:39.255Z,94731.98
2023-04-18T08:13:06.721Z,94731.14
2023-04-18T08:15:33.661Z,94735.18
2023-04-18T08:18:01.171Z,94737.01
2023-04-18T08:20:28.138Z,94732.34
2023-04-18T08:25:24.936Z,94729.26
2023-04-18T08:27:53.927Z,94733.34
2023-04-18T08:30:20.856Z,94733.66
2023-04-18T08:32:47.731Z,94731.73
2023-04-18T08:35:14.680Z,94727.98
2023-04-18T08:37:41.941Z,94732.98
2023-04-18T08:40:09.299Z,94734.23
2023-04-18T08:42:37.382Z,94732.95
2023-04-18T08:45:05.873Z,94727.95
2023-04-18T08:47:35.361Z,94723.45
2023-04-18T08:50:02.547Z,94721.95
2023-04-18T08:52:31.175Z,94716.42
2023-04-18T08:54:57.969Z,94716.08
2023-04-18T08:57:27.008Z,94717.77
2023-04-18T08:59:55.543Z,94719.96
2023-04-18T09:02:23.470Z,94722.58
2023-04-18T09:04:52.846Z,94713.94
2023-04-18T09:07:27.982Z,94714.95
2023-04-18T09:09:57.386Z,94719.54
2023-04-18T09:12:26.649Z,94710.99
2023-04-18T09:14:58.684Z,94707.13
2023-04-18T09:17:31.672Z,94713.23
2023-04-18T09:19:59.494Z,94711.99
2023-04-18T09:22:26.532Z,94713.90
2023-04-18T09:24:57.421Z,94713.94
2023-04-18T09:27:24.535Z,94711.00
2023-04-18T09:29:54.760Z,94711.60
2023-04-18T09:32:25.149Z,94716.51
2023-04-18T09:34:58.099Z,94715.77
2023-04-18T09:37:26.559Z,94717.84
2023-04-18T09:39:53.791Z,94719.36
2023-04-18T09:42:21.738Z,94721.11
2023-04-18T09:45:08.366Z,94723.52
2023-04-18T09:47:36.848Z,94722.34
2023-04-18T09:50:09.726Z,94724.15
2023-04-18T09:52:41.353Z,94719.61
2023-04-18T09:55:10.488Z,94716.67
2023-04-18T09:57:41.441Z,94718.07
2023-04-18T10:00:14.446Z,94721.73
2023-04-18T10:02:49.036Z,94718.67
2023-04-18T10:05:19.561Z,94714.44
2023-04-18T10:07:49.826Z,94712.66
2023-04-18T10:10:17.624Z,94714.52
2023-04-18T10:12:48.004Z,94710.52
2023-04-18T10:15:16.166Z,94710.63
2023-04-18T10:17:56.102Z,94709.98
2023-04-18T10:20:32.178Z,94709.22
2023-04-18T10:22:59.919Z,94699.81
2023-04-18T10:25:38.838Z,94699.41
2023-04-18T10:28:10.085Z,94700.98
2023-04-18T10:30:42.354Z,94698.73
2023-04-18T10:33:41.096Z,94701.66
2023-04-18T10:36:09.459Z,94699.44
2023-04-18T10:38:45.417Z,94697.54
2023-04-18T10:41:25.457Z,94697.00
2023-04-18T10:44:23.009Z,94696.79
2023-04-18T10:46:52.725Z,94699.58
2023-04-18T10:49:26.050Z,94702.70
2023-04-18T10:51:56.684Z,94700.81
2023-04-18T10:54:30.859Z,94700.21
2023-04-18T10:57:00.278Z,94696.48
2023-04-18T10:59:29.998Z,94696.40
2023-04-18T11:02:18.043Z,94698.38
2023-04-18T11:04:51.430Z,94691.78
2023-04-18T11:07:18.386Z,94689.42
2023-04-18T11:09:57.342Z,94684.27
2023-04-18T11:12:24.110Z,94684.20
2023-04-18T11:14:55.271Z,94681.01
2023-04-18T11:17:24.376Z,94677.10
2023-04-18T11:19:59.403Z,94670.70
2023-04-18T11:22:26.934Z,94669.67
2023-04-18T11:25:00.990Z,94664.92
2023-04-18T11:27:29.685Z,94669.18
2023-04-18T11:29:57.644Z,94663.83
2023-04-18T11:32:24.627Z,94661.38
2023-04-18T11:34:53.519Z,94660.70
2023-04-18T11:37:20.931Z,94657.16
2023-04-18T11:39:48.127Z,94658.35
2023-04-18T11:42:15.043Z,94654.48
2023-04-18T11:44:46.050Z,94647.89
2023-04-18T11:47:33.127Z,94649.31
2023-04-18T11:50:00.926Z,94650.28
2023-04-18T11:52:29.641Z,94650.29
2023-04-18T11:54:58.670Z,94657.62
2023-04-18T11:57:27.017Z,94652.72
2023-04-18T11:59:59.546Z,94657.51
2023-04-18T12:02:39.011Z,94663.36
2023-04-18T12:05:06.665Z,94668.67
2023-04-18T12:07:35.210Z,94667.23
2023-04-18T12:10:04.448Z,94675.02
2023-04-18T12:12:31.346Z,94679.10
2023-04-18T12:14:59.992Z,94681.54
2023-04-18T12:17:28.098Z,94678.33
2023-04-18T12:19:55.595Z,94680.88
2023-04-18T12:22:42.990Z,94686.83
2023-04-18T12:25:24.220Z,94679.90
2023-04-18T12:27:55.950Z,94677.60
2023-04-18T12:30:31.073Z,94675.77
2023-04-18T12:33:00.163Z,94675.85
2023-04-18T12:35:28.076Z,94675.69
2023-04-18T12:37:57.428Z,94673.64
2023-04-18T12:40:26.385Z,94671.64
2023-04-18T12:42:54.576Z,94669.21
2023-04-18T12:45:22.942Z,94675.73
2023-04-18T12:47:51.668Z,94673.73
2023-04-18T12:50:23.468Z,94680.29
2023-04-18T12:52:55.858Z,94684.48
2023-04-18T12:55:25.945Z,94689.27
2023-04-18T12:57:54.564Z,94688.25
2023-04-18T13:00:23.566Z,94694.44
2023-04-18T13:02:52.343Z,94691.31
2023-04-18T13:05:22.752Z,94693.15
2023-04-18T13:07:49.898Z,94693.64
2023-04-18T13:10:19.059Z,94693.63
2023-04-18T13:12:46.957Z,94688.80
2023-04-18T13:15:13.824Z,94691.63
2023-04-18T13:17:40.673Z,94693.53
2023-04-18T13:20:15.208Z,94698.33
2023-04-18T13:22:43.388Z,94695.63
2023-04-18T13:25:11.148Z,94695.98
2023-04-18T13:27:41.429Z,94700.74
2023-04-18T13:30:10.791Z,94694.45
2023-04-18T13:32:39.147Z,94699.39
2023-04-18T13:35:08.796Z,94708.69
2023-04-18T13:37:35.919Z,94700.50
2023-04-18T13:40:06.929Z,94697.91
2023-04-18T13:42:35.911Z,94697.39
2023-04-18T13:45:03.305Z,94700.76
2023-04-18T13:47:30.424Z,94700.44
2023-04-18T13:49:57.952Z,94701.83
2023-04-18T13:52:25.743Z,94698.14
2023-04-18T13:54:52.927Z,94701.98
2023-04-18T13:57:19.894Z,94700.51
2023-04-18T13:59:46.947Z,94701.84
2023-04-18T14:02:13.954Z,94705.40
2023-04-18T14:04:41.032Z,94703.46
2023-04-18T14:07:09.200Z,94705.44
2023-04-18T14:09:36.024Z,94709.66
2023-04-18T14:12:02.874Z,94708.00
2023-04-18T14:14:29.900Z,94712.71
2023-04-18T14:16:56.923Z,94711.37
2023-04-18T14:19:23.980Z,94712.13
2023-04-18T14:21:50.925Z,94716.54
2023-04-18T14:24:17.776Z,94714.49
2023-04-18T14:26:44.679Z,94717.48
2023-04-18T14:29:11.722Z,94715.30
2023-04-18T14:31:38.629Z,94721.63
2023-04-18T14:34:06.564Z,94719.64
2023-04-18T14:36:33.390Z,94720.89
2023-04-18T14:39:00.567Z,94718.35
2023-04-18T14:41:27.643Z,94721.67
2023-04-18T14:43:54.460Z,94720.84
2023-04-18T14:46:21.470Z,94722.17
2023-04-18T14:48:48.295Z,94723.33
2023-04-18T14:51:16.914Z,94726.63
2023-04-18T14:53:44.722Z,94723.87
2023-04-18T14:56:11.709Z,94725.23
2023-04-18T14:58:38.566Z,94726.55
2023-04-18T15:01:05.631Z,94725.61
2023-04-18T15:03:33.391Z,94732.01
2023-04-18T15:06:00.610Z,94736.75
2023-04-18T15:08:27.769Z,94740.89
2023-04-18T15:10:54.524Z,94741.30
2023-04-18T15:13:21.313Z,94742.51
2023-04-18T15:15:54.693Z,94742.04
2023-04-18T15:18:21.726Z,94743.84
2023-04-18T15:20:48.795Z,94745.41
2023-04-18T15:23:16.006Z,94748.14
2023-04-18T15:25:45.460Z,94748.30
2023-04-18T15:28:16.182Z,94753.55
2023-04-18T15:30:42.990Z,94758.89
2023-04-18T15:33:11.275Z,94757.39
2023-04-18T15:35:38.178Z,94758.74
2023-04-18T15:38:05.056Z,94760.92
2023-04-18T15:40:33.232Z,94764.52
2023-04-18T15:43:00.316Z,94762.39
2023-04-18T15:45:47.306Z,94764.56
2023-04-18T15:48:14.135Z,94764.73
2023-04-18T15:50:42.499Z,94765.75
2023-04-18T15:53:09.505Z,94769.06
2023-04-18T15:55:36.455Z,94771.10
2023-04-18T15:58:03.582Z,94771.44
2023-04-18T16:00:30.493Z,94768.84
2023-04-18T16:02:57.808Z,94770.76
2023-04-18T16:05:24.773Z,94774.49
2023-04-18T16:07:53.999Z,94769.83
2023-04-18T16:10:20.842Z,94770.22
2023-04-18T16:12:47.651Z,94774.53
2023-04-18T16:15:14.446Z,94773.33
2023-04-18T16:17:41.749Z,94774.64
2023-04-18T16:20:09.325Z,94775.62
2023-04-18T16:22:36.988Z,94778.27
2023-04-18T16:25:05.292Z,94780.14
2023-04-18T16:27:33.068Z,94780.83
2023-04-18T16:30:00.190Z,94785.32
2023-04-18T16:32:27.092Z,94782.98
2023-04-18T16:34:57.227Z,94788.13
2023-04-18T16:37:24.054Z,94792.47
2023-04-18T16:39:51.343Z,94789.15
2023-04-18T16:42:18.357Z,94789.46
2023-04-18T16:44:45.985Z,94790.23
2023-04-18T16:47:12.794Z,94790.15
2023-04-18T16:49:40.675Z,94791.09
2023-04-18T16:52:07.542Z,94797.66
2023-04-18T16:54:35.350Z,94797.58
2023-04-18T16:57:03.022Z,94799.52
2023-04-18T16:59:31.290Z,94797.33
2023-04-18T17:02:01.029Z,94796.48
2023-04-18T17:04:29.632Z,94793.19
2023-04-18T17:06:57.036Z,94792.20
2023-04-18T17:09:24.207Z,94795.21
2023-04-18T17:16:58.062Z,94802.55
2023-04-18T17:19:25.042Z,94808.52
2023-04-18T17:21:51.955Z,94815.96
2023-04-18T17:24:25.088Z,94816.73
2023-04-18T17:26:53.220Z,94817.90
2023-04-18T17:29:21.211Z,94818.02
2023-04-18T17:31:54.872Z,94823.91
2023-04-18T17:34:22.283Z,94821.27
2023-04-18T17:36:49.165Z,94816.73
2023-04-18T17:39:17.021Z,94820.14
2023-04-18T17:41:45.265Z,94819.07
2023-04-18T17:44:57.973Z,94821.02
2023-04-18T17:48:03.097Z,94817.86
2023-04-18T17:50:39.775Z,94819.16
2023-04-18T17:53:07.781Z,94820.18
2023-04-18T17:55:34.915Z,94830.33
2023-04-18T17:58:01.820Z,94833.17
2023-04-18T18:00:28.821Z,94838.41
2023-04-18T18:02:58.009Z,94844.05
2023-04-18T18:05:49.040Z,94851.88
2023-04-18T18:08:16.126Z,94856.20
2023-04-18T18:10:43.050Z,94857.73
2023-04-18T18:13:10.033Z,94856.79
2023-04-18T18:15:36.922Z,94856.47
2023-04-18T18:18:04.663Z,94859.27
2023-04-18T18:20:31.593Z,94859.48
2023-04-18T18:23:24.444Z,94860.73
2023-04-18T18:25:52.199Z,94866.38
2023-04-18T18:28:19.292Z,94869.81
2023-04-18T18:30:46.115Z,94871.13
2023-04-18T18:33:14.452Z,94873.56
2023-04-18T18:35:41.997Z,94876.65
2023-04-18T18:38:09.407Z,94878.59
2023-04-18T18:40:39.725Z,94879.53
2023-04-18T18:43:06.501Z,94881.30
2023-04-18T18:45:35.553Z,94880.28
2023-04-18T18:48:04.077Z,94882.80
2023-04-18T18:50:31.041Z,94880.44
2023-04-18T18:53:22.058Z,94882.98
2023-04-18T18:55:49.445Z,94883.91
2023-04-18T18:58:16.205Z,94882.55
2023-04-18T19:00:42.976Z,94884.48
2023-04-18T19:03:09.924Z,94878.91
2023-04-18T19:05:36.861Z,94882.14
2023-04-18T19:08:05.778Z,94883.80
2023-04-18T19:10:32.608Z,94884.52
2023-04-18T19:13:00.337Z,94885.86
2023-04-18T19:15:27.309Z,94889.85
2023-04-18T19:17:54.104Z,94884.23
2023-04-18T19:20:21.038Z,94886.02
2023-04-18T19:22:47.831Z,94884.03
2023-04-18T19:25:14.644Z,94886.47
2023-04-18T19:27:42.666Z,94885.10
2023-04-18T19:30:29.897Z,94884.29
2023-04-18T19:32:56.854Z,94885.52
2023-04-18T19:35:23.705Z,94884.06
2023-04-18T19:37:50.514Z,94880.13
2023-04-18T19:40:17.318Z,94882.77
2023-04-18T19:42:44.041Z,94878.40
2023-04-18T19:45:12.314Z,94877.55
2023-04-18T19:47:44.334Z,94879.63
2023-04-18T19:50:11.700Z,94878.13
2023-04-18T19:52:38.506Z,94880.61
2023-04-18T19:55:05.586Z,94881.02
2023-04-18T19:57:39.026Z,94879.80
2023-04-18T20:00:11.260Z,94879.17
2023-04-18T20:02:43.485Z,94876.98
2023-04-18T20:05:10.837Z,94877.16
2023-04-18T20:07:37.759Z,94878.75
2023-04-18T20:10:05.320Z,94873.84
2023-04-18T20:12:32.170Z,94877.82
2023-04-18T20:14:59.067Z,94877.77
2023-04-18T20:17:26.469Z,94877.94
2023-04-18T20:19:57.046Z,94876.77
2023-04-18T20:22:26.946Z,94876.55
2023-04-18T20:24:57.184Z,94873.67
2023-04-18T20:27:24.434Z,94870.48
2023-04-18T20:29:51.218Z,94871.95
2023-04-18T20:32:18.137Z,94871.81
2023-04-18T20:34:46.719Z,94871.86
2023-04-18T20:37:18.692Z,94872.13
2023-04-18T20:39:45.638Z,94874.81
2023-04-18T20:42:14.729Z,94875.87
2023-04-18T20:44:43.424Z,94874.06
2023-04-18T20:47:10.668Z,94874.98
2023-04-18T20:49:38.184Z,94875.63
2023-04-18T20:52:09.046Z,94876.14
2023-04-18T20:54:35.854Z,94877.59
2023-04-18T20:57:02.756Z,94877.52
2023-04-18T20:59:29.700Z,94875.84
2023-04-18T21:01:56.664Z,94870.96
2023-04-18T21:04:23.793Z,94872.52
2023-04-18T21:06:51.069Z,94872.96
2023-04-18T21:09:18.052Z,94877.16
2023-04-18T21:11:44.897Z,94874.70
2023-04-18T21:14:11.756Z,94873.80
2023-04-18T21:16:39.862Z,94873.27
2023-04-18T21:19:09.164Z,94872.80
2023-04-18T21:21:36.065Z,94869.02
2023-04-18T21:24:05.122Z,94869.38
2023-04-18T21:26:31.946Z,94867.05
2023-04-18T21:29:01.091Z,94865.94
2023-04-18T21:31:30.427Z,94863.32
2023-04-18T21:33:59.220Z,94860.14
2023-04-18T21:36:27.809Z,94860.19
2023-04-18T21:38:59.185Z,94857.31
2023-04-18T21:41:26.679Z,94853.70
2023-04-18T21:43:53.801Z,94854.95
2023-04-18T21:46:21.132Z,94855.77
2023-04-18T21:48:48.348Z,94854.08
2023-04-18T21:51:16.903Z,94853.16
2023-04-18T21:53:44.131Z,94855.17
2023-04-18T21:56:11.314Z,94854.71
2023-04-18T21:58:38.206Z,94854.17
2023-04-18T22:02:18.357Z,94856.28
2023-04-18T22:04:45.184Z,94856.04
2023-04-18T22:07:12.539Z,94856.15
2023-04-18T22:09:39.879Z,94859.61
2023-04-18T22:12:07.006Z,94859.48
2023-04-18T22:14:34.114Z,94857.86
2023-04-18T22:17:04.858Z,94859.91
2023-04-18T22:19:31.941Z,94861.16
2023-04-18T22:21:58.862Z,94852.85
2023-04-18T22:24:28.558Z,94858.13
2023-04-18T22:26:55.439Z,94860.08
2023-04-18T22:29:22.235Z,94855.17
2023-04-18T22:31:48.998Z,94851.14
2023-04-18T22:34:16.072Z,94848.52
2023-04-18T22:36:43.960Z,94850.84
2023-04-18T22:39:12.211Z,94846.73
2023-04-18T22:41:39.096Z,94845.94
2023-04-18T22:44:06.025Z,94843.66
2023-04-18T22:46:33.137Z,94844.04
2023-04-18T22:49:00.023Z,94841.32
2023-04-18T22:51:28.710Z,94838.20
2023-04-18T22:53:56.347Z,94837.14
2023-04-18T22:56:23.398Z,94835.52
2023-04-18T22:58:50.160Z,94832.36
2023-04-18T23:01:17.094Z,94830.29
2023-04-18T23:03:43.979Z,94828.46
2023-04-18T23:06:11.114Z,94825.70
2023-04-18T23:08:37.908Z,94824.36
2023-04-18T23:11:04.759Z,94821.48
2023-04-18T23:13:31.536Z,94816.38
2023-04-18T23:15:58.434Z,94816.02
2023-04-18T23:18:25.193Z,94815.11
2023-04-18T23:20:52.101Z,94811.38
2023-04-18T23:23:18.877Z,94813.36
2023-04-18T23:25:45.828Z,94812.40
2023-04-18T23:28:13.807Z,94811.05
2023-04-18T23:30:40.675Z,94812.44
2023-04-18T23:33:08.544Z,94814.06
2023-04-18T23:35:35.447Z,94815.29
2023-04-18T23:38:02.230Z,94813.58
2023-04-18T23:40:28.968Z,94810.13
2023-04-18T23:42:55.753Z,94809.89
2023-04-18T23:45:24.504Z,94806.60
2023-04-18T23:47:51.789Z,94805.98
2023-04-18T23:50:18.674Z,94801.16
2023-04-18T23:52:45.624Z,94801.94
2023-04-18T23:55:12.415Z,94796.50
2023-04-18T23:57:39.180Z,94795.25
